Time;durP1;ratioP1;P1;durP2;ratioP2;P2;SDS_P1;SDS_P2;PMS_P1;PMS_P2;Temp;Humidity;BMP_temperature;BMP_pressure;BME280_temperature;BME280_humidity;BME280_pressure;Samples;Min_cycle;Max_cycle;Signal;HPM_P1;HPM_P2
2021/10/05 00:01:33;;;;;;;6.27;5.33;;;12.50;99.90;;;;;;5049953;27;20167;-65
2021/10/05 00:03:59;;;;;;;6.32;5.72;;;12.50;99.90;;;;;;5050747;27;20261;-63
2021/10/05 00:06:25;;;;;;;10.07;7.00;;;12.50;99.90;;;;;;5050546;27;20181;-65
2021/10/05 00:08:50;;;;;;;7.40;5.30;;;12.50;99.90;;;;;;5050654;27;20943;-64
2021/10/05 00:11:16;;;;;;;9.13;6.60;;;12.50;99.90;;;;;;5050729;28;20625;-64
2021/10/05 00:13:42;;;;;;;8.47;6.60;;;12.50;99.90;;;;;;5050716;27;20173;-64
2021/10/05 00:16:08;;;;;;;7.50;4.90;;;12.50;99.90;;;;;;5050747;28;20183;-65
2021/10/05 00:18:35;;;;;;;7.10;5.87;;;12.50;99.90;;;;;;5050344;28;20166;-65
2021/10/05 00:21:01;;;;;;;5.07;4.43;;;12.50;99.90;;;;;;5050113;28;20460;-66
2021/10/05 00:23:27;;;;;;;6.13;5.50;;;12.60;99.90;;;;;;5050538;28;20409;-64
2021/10/05 00:25:53;;;;;;;5.40;4.30;;;12.60;99.90;;;;;;5050577;27;20629;-65
2021/10/05 00:28:19;;;;;;;6.27;5.30;;;12.60;99.90;;;;;;5050261;28;20178;-65
2021/10/05 00:30:44;;;;;;;8.57;4.50;;;12.50;99.90;;;;;;5050439;27;20280;-65
2021/10/05 00:33:10;;;;;;;4.50;3.33;;;12.50;99.90;;;;;;5049256;27;20184;-65
2021/10/05 00:35:36;;;;;;;6.30;5.03;;;12.50;99.90;;;;;;5050125;27;20549;-65
2021/10/05 00:38:01;;;;;;;5.17;4.60;;;12.40;99.90;;;;;;5049890;28;20186;-65
2021/10/05 00:40:27;;;;;;;7.17;5.87;;;12.50;99.90;;;;;;5050228;28;20264;-65
2021/10/05 00:42:53;;;;;;;6.67;5.13;;;12.50;99.90;;;;;;5050222;28;20737;-66
2021/10/05 00:45:19;;;;;;;7.13;5.90;;;12.50;99.90;;;;;;5050242;28;20773;-66
2021/10/05 00:47:45;;;;;;;7.07;5.57;;;12.40;99.90;;;;;;5049905;28;20468;-66
2021/10/05 00:50:14;;;;;;;6.97;6.27;;;12.50;99.90;;;;;;5049753;28;20210;-67
2021/10/05 00:52:43;;;;;;;5.82;4.93;;;12.40;99.90;;;;;;5048759;27;20666;-66
2021/10/05 00:55:11;;;;;;;7.32;6.05;;;12.40;99.90;;;;;;5050137;28;20206;-66
2021/10/05 00:57:37;;;;;;;5.47;4.85;;;12.30;99.90;;;;;;5049617;28;20221;-66
2021/10/05 01:00:07;;;;;;;5.70;4.40;;;12.30;99.90;;;;;;5050019;28;20222;-66
2021/10/05 01:02:33;;;;;;;8.93;7.00;;;12.30;99.90;;;;;;5050173;28;20414;-65
2021/10/05 01:04:59;;;;;;;6.47;5.87;;;12.20;99.90;;;;;;5049572;27;20425;-65
2021/10/05 01:07:26;;;;;;;6.93;5.53;;;12.20;99.90;;;;;;5048322;28;20927;-65
2021/10/05 01:09:53;;;;;;;6.93;5.68;;;12.20;99.90;;;;;;5049818;28;20198;-65
2021/10/05 01:12:18;;;;;;;7.07;5.40;;;12.20;99.90;;;;;;5051263;28;20641;-65
2021/10/05 01:14:45;;;;;;;6.50;5.40;;;12.10;99.90;;;;;;5053603;28;20409;-65
2021/10/05 01:17:11;;;;;;;7.50;5.60;;;12.10;99.90;;;;;;5053160;28;20174;-65
2021/10/05 01:19:37;;;;;;;7.32;6.07;;;12.10;99.90;;;;;;5053015;28;20251;-65
2021/10/05 01:22:04;;;;;;;8.45;6.30;;;12.10;99.90;;;;;;5053287;28;20162;-65
2021/10/05 01:24:29;;;;;;;7.55;5.95;;;12.10;99.90;;;;;;5053368;27;20182;-65
2021/10/05 01:26:56;;;;;;;9.83;6.33;;;12.20;99.90;;;;;;5053073;28;20243;-64
2021/10/05 01:29:25;;;;;;;8.82;6.35;;;12.20;99.90;;;;;;5053331;27;20205;-65
2021/10/05 01:31:53;;;;;;;10.80;7.18;;;12.20;99.90;;;;;;5053247;28;20177;-64
2021/10/05 01:34:22;;;;;;;8.98;6.07;;;12.20;99.90;;;;;;5052997;28;20177;-64
2021/10/05 01:36:49;;;;;;;11.75;8.68;;;12.20;99.90;;;;;;5052917;28;20178;-64
2021/10/05 01:39:24;;;;;;;7.97;6.68;;;12.20;99.90;;;;;;5053040;28;20252;-65
2021/10/05 01:41:53;;;;;;;8.32;6.40;;;12.20;99.90;;;;;;5053309;28;20596;-65
2021/10/05 01:44:19;;;;;;;10.18;7.47;;;12.20;99.90;;;;;;5053167;27;20182;-65
2021/10/05 01:46:44;;;;;;;10.27;8.37;;;12.20;99.90;;;;;;5053042;27;20175;-65
2021/10/05 01:49:14;;;;;;;9.40;6.20;;;12.20;99.90;;;;;;5052777;27;20203;-64
2021/10/05 01:51:40;;;;;;;8.30;7.00;;;12.20;99.90;;;;;;5052874;28;20170;-65
2021/10/05 01:54:06;;;;;;;10.27;6.83;;;12.20;99.90;;;;;;5052960;28;20384;-64
2021/10/05 01:56:31;;;;;;;7.27;6.20;;;12.10;99.90;;;;;;5052677;28;20926;-66
2021/10/05 01:58:57;;;;;;;12.60;8.57;;;12.20;99.90;;;;;;5052559;28;20226;-63
2021/10/05 02:01:22;;;;;;;8.80;7.47;;;12.20;99.90;;;;;;5052621;28;20197;-63
2021/10/05 02:03:48;;;;;;;11.30;9.60;;;12.20;99.90;;;;;;5052441;28;20213;-64
2021/10/05 02:06:14;;;;;;;11.13;7.57;;;12.20;99.90;;;;;;5052880;28;20237;-64
2021/10/05 02:08:39;;;;;;;12.67;8.00;;;12.20;99.90;;;;;;5052398;28;20310;-64
2021/10/05 02:11:05;;;;;;;14.77;9.57;;;12.20;99.90;;;;;;5052824;28;20224;-66
2021/10/05 02:13:31;;;;;;;9.40;8.43;;;12.20;99.90;;;;;;5052571;28;20179;-64
2021/10/05 02:15:57;;;;;;;9.80;7.67;;;12.20;99.90;;;;;;5052460;28;20238;-65
2021/10/05 02:18:22;;;;;;;11.00;8.33;;;12.20;99.90;;;;;;5052049;28;20427;-64
2021/10/05 02:20:48;;;;;;;10.57;7.80;;;12.20;99.90;;;;;;5052488;27;20206;-65
2021/10/05 02:23:14;;;;;;;9.70;8.37;;;12.20;99.90;;;;;;5052216;27;20174;-64
2021/10/05 02:25:39;;;;;;;14.73;9.20;;;12.20;99.90;;;;;;5052193;28;20167;-65
2021/10/05 02:28:05;;;;;;;12.13;8.23;;;12.20;99.90;;;;;;5052000;27;20174;-65
2021/10/05 02:30:31;;;;;;;11.90;8.30;;;12.20;99.90;;;;;;5052364;27;20198;-64
2021/10/05 02:32:57;;;;;;;11.40;8.33;;;12.20;99.90;;;;;;5051845;28;20217;-66
2021/10/05 02:35:23;;;;;;;10.20;7.13;;;12.20;99.90;;;;;;5052146;27;20432;-65
2021/10/05 02:37:48;;;;;;;15.57;9.03;;;12.20;99.90;;;;;;5051919;28;20541;-65
2021/10/05 02:40:14;;;;;;;15.87;8.10;;;12.20;99.90;;;;;;5051055;28;20225;-65
2021/10/05 02:42:40;;;;;;;9.17;7.73;;;12.20;99.90;;;;;;5050908;28;20395;-64
2021/10/05 02:45:07;;;;;;;14.23;8.73;;;12.20;99.90;;;;;;5052725;28;20178;-65
2021/10/05 02:47:33;;;;;;;11.35;8.73;;;12.20;99.90;;;;;;5051481;28;20191;-65
2021/10/05 02:49:59;;;;;;;8.70;7.40;;;12.10;99.90;;;;;;5051951;27;20190;-65
2021/10/05 02:52:25;;;;;;;11.50;7.40;;;12.10;99.90;;;;;;5052164;27;20412;-65
2021/10/05 02:54:51;;;;;;;13.45;8.32;;;12.20;99.90;;;;;;5052226;27;20416;-65
2021/10/05 02:57:19;;;;;;;9.40;7.72;;;12.20;99.90;;;;;;5050179;27;20174;-65
2021/10/05 02:59:45;;;;;;;15.27;7.93;;;12.10;99.90;;;;;;5051960;28;20205;-65
2021/10/05 03:02:12;;;;;;;13.20;10.10;;;12.20;99.90;;;;;;5051639;27;20261;-65
2021/10/05 03:04:38;;;;;;;14.00;8.60;;;12.20;99.90;;;;;;5051625;28;20178;-65
2021/10/05 03:07:05;;;;;;;11.95;8.13;;;12.10;99.90;;;;;;5051715;28;20405;-65
2021/10/05 03:09:31;;;;;;;13.85;8.57;;;12.10;99.90;;;;;;5051863;28;20235;-64
2021/10/05 03:11:57;;;;;;;10.43;7.78;;;12.20;99.90;;;;;;5051792;28;20170;-64
2021/10/05 03:14:23;;;;;;;11.47;8.40;;;12.20;99.90;;;;;;5050771;28;20230;-64
2021/10/05 03:16:48;;;;;;;9.77;8.60;;;12.20;99.90;;;;;;5050933;28;20207;-65
2021/10/05 03:19:14;;;;;;;10.70;7.07;;;12.20;99.90;;;;;;5051444;27;20213;-64
2021/10/05 03:21:40;;;;;;;11.70;7.90;;;12.20;99.90;;;;;;5051727;27;20181;-63
2021/10/05 03:24:07;;;;;;;11.48;8.07;;;12.20;99.90;;;;;;5050479;27;20178;-65
2021/10/05 03:26:33;;;;;;;12.73;8.18;;;12.10;99.90;;;;;;5051322;28;20295;-65
2021/10/05 03:28:59;;;;;;;11.95;8.80;;;12.20;99.90;;;;;;5051293;28;20220;-65
2021/10/05 03:31:24;;;;;;;11.00;7.30;;;12.20;99.90;;;;;;5051237;27;20250;-65
2021/10/05 03:33:50;;;;;;;12.87;8.63;;;12.20;99.90;;;;;;5051537;28;20180;-64
2021/10/05 03:36:16;;;;;;;11.70;7.87;;;12.20;99.90;;;;;;5051652;28;20271;-65
2021/10/05 03:38:42;;;;;;;10.03;7.03;;;12.20;99.90;;;;;;5050738;28;20213;-65
2021/10/05 03:41:10;;;;;;;18.17;10.50;;;12.10;99.90;;;;;;5051821;28;20665;-65
2021/10/05 03:43:36;;;;;;;12.02;10.10;;;12.20;99.90;;;;;;5051199;28;20404;-64
2021/10/05 03:46:03;;;;;;;11.43;9.55;;;12.10;99.90;;;;;;5050927;28;20706;-64
2021/10/05 03:48:29;;;;;;;13.02;9.50;;;12.10;99.90;;;;;;5050840;28;20310;-64
2021/10/05 03:50:55;;;;;;;13.17;8.20;;;12.10;99.90;;;;;;5051176;28;20177;-64
2021/10/05 03:53:21;;;;;;;11.37;8.57;;;12.10;99.90;;;;;;5051141;28;20404;-66
2021/10/05 03:55:52;;;;;;;13.18;8.57;;;12.10;99.90;;;;;;5050858;28;20204;-64
2021/10/05 03:58:18;;;;;;;13.52;8.20;;;12.10;99.90;;;;;;5050651;28;20173;-64
2021/10/05 04:00:44;;;;;;;18.48;10.38;;;12.10;99.90;;;;;;5050754;28;20205;-64
2021/10/05 04:03:10;;;;;;;10.43;7.40;;;12.10;99.90;;;;;;5050974;27;20171;-64
2021/10/05 04:05:36;;;;;;;15.33;9.83;;;12.10;99.90;;;;;;5051085;27;20171;-63
2021/10/05 04:08:02;;;;;;;12.20;8.97;;;12.10;99.90;;;;;;5050589;28;20171;-64
2021/10/05 04:10:28;;;;;;;11.57;9.03;;;12.20;99.90;;;;;;5050704;28;20260;-65
2021/10/05 04:12:54;;;;;;;12.88;8.85;;;12.10;99.90;;;;;;5050609;28;20388;-65
2021/10/05 04:15:20;;;;;;;11.20;7.37;;;12.20;99.90;;;;;;5050457;27;20182;-64
2021/10/05 04:17:46;;;;;;;12.97;9.60;;;12.10;99.90;;;;;;5050442;28;20391;-64
2021/10/05 04:20:12;;;;;;;15.50;8.40;;;12.10;99.90;;;;;;5050682;28;20207;-64
2021/10/05 04:22:38;;;;;;;13.77;9.30;;;12.10;99.90;;;;;;5050529;28;20188;-65
2021/10/05 04:25:06;;;;;;;13.35;10.20;;;12.10;99.90;;;;;;5050510;28;20409;-64
2021/10/05 04:27:35;;;;;;;12.57;9.43;;;12.10;99.90;;;;;;5049925;28;20262;-64
2021/10/05 04:30:05;;;;;;;12.33;9.37;;;12.20;99.90;;;;;;5050553;28;20403;-64
2021/10/05 04:32:31;;;;;;;11.07;8.17;;;12.20;99.90;;;;;;5050582;28;20411;-64
2021/10/05 04:34:57;;;;;;;11.83;8.53;;;12.20;99.90;;;;;;5050195;28;20460;-64
2021/10/05 04:37:25;;;;;;;13.37;7.77;;;12.20;99.90;;;;;;5050151;28;20189;-65
2021/10/05 04:39:50;;;;;;;14.47;9.30;;;12.20;99.90;;;;;;5050099;28;20237;-65
2021/10/05 04:42:16;;;;;;;13.63;8.50;;;12.20;99.90;;;;;;5050264;28;20902;-65
2021/10/05 04:44:42;;;;;;;15.93;9.20;;;12.20;99.90;;;;;;5050429;28;20170;-64
2021/10/05 04:47:07;;;;;;;14.03;9.00;;;12.20;99.90;;;;;;5049550;28;20670;-64
2021/10/05 04:49:33;;;;;;;21.83;11.60;;;12.20;99.90;;;;;;5049921;28;20191;-64
2021/10/05 04:51:59;;;;;;;12.07;9.43;;;12.10;99.90;;;;;;5050283;27;20170;-65
2021/10/05 04:54:25;;;;;;;15.67;10.10;;;12.10;99.90;;;;;;5050171;28;20214;-64
2021/10/05 04:56:51;;;;;;;12.53;7.60;;;12.10;99.90;;;;;;5049785;27;20492;-66
2021/10/05 04:59:18;;;;;;;11.90;8.98;;;12.10;99.90;;;;;;5050220;27;20194;-66
2021/10/05 05:01:44;;;;;;;14.90;9.90;;;12.10;99.90;;;;;;5048559;27;20655;-65
2021/10/05 05:04:10;;;;;;;14.77;8.73;;;12.10;99.90;;;;;;5049788;28;20175;-66
2021/10/05 05:06:37;;;;;;;15.57;10.27;;;12.10;99.90;;;;;;5049510;28;20185;-66
2021/10/05 05:09:03;;;;;;;17.70;9.93;;;12.10;99.90;;;;;;5049912;28;20247;-64
2021/10/05 05:11:29;;;;;;;13.75;7.97;;;12.10;99.90;;;;;;5050063;28;20789;-65
2021/10/05 05:14:05;;;;;;;13.83;9.63;;;12.10;99.90;;;;;;5050026;27;20166;-66
2021/10/05 05:16:31;;;;;;;11.57;8.93;;;12.20;99.90;;;;;;5048582;27;20639;-66
2021/10/05 05:18:57;;;;;;;16.83;9.45;;;12.20;99.90;;;;;;5049266;28;20236;-66
2021/10/05 05:21:23;;;;;;;16.83;8.43;;;12.20;99.90;;;;;;5049946;28;20588;-66
2021/10/05 05:23:49;;;;;;;13.80;11.50;;;12.20;99.90;;;;;;5049873;28;20172;-66
2021/10/05 05:26:15;;;;;;;14.93;8.90;;;12.10;99.90;;;;;;5049595;28;20208;-64
2021/10/05 05:28:41;;;;;;;13.77;9.20;;;12.10;99.90;;;;;;5049230;28;20405;-64
2021/10/05 05:31:07;;;;;;;12.50;8.57;;;12.10;99.90;;;;;;5049829;28;20420;-64
2021/10/05 05:33:32;;;;;;;12.77;9.50;;;12.20;99.90;;;;;;5049301;28;20420;-64
2021/10/05 05:35:58;;;;;;;15.40;9.63;;;12.20;99.90;;;;;;5049746;27;20971;-65
2021/10/05 05:38:25;;;;;;;13.80;9.37;;;12.10;99.90;;;;;;5049094;27;20197;-66
2021/10/05 05:40:53;;;;;;;15.82;8.10;;;12.10;99.90;;;;;;5049222;28;20202;-65
2021/10/05 05:43:19;;;;;;;12.70;8.73;;;12.10;99.90;;;;;;5049671;28;20263;-65
2021/10/05 05:45:45;;;;;;;14.40;8.85;;;12.20;99.90;;;;;;5049564;28;20206;-69
2021/10/05 05:48:10;;;;;;;14.53;9.17;;;12.20;99.90;;;;;;5047125;27;20198;-67
2021/10/05 05:50:37;;;;;;;14.40;8.83;;;12.20;99.90;;;;;;5049883;27;20196;-64
2021/10/05 05:53:03;;;;;;;13.60;9.13;;;12.20;99.90;;;;;;5049174;27;20179;-65
2021/10/05 05:55:28;;;;;;;9.65;7.38;;;12.20;99.90;;;;;;5049554;28;20181;-64
2021/10/05 05:57:54;;;;;;;14.40;7.87;;;12.20;99.90;;;;;;5048972;27;20182;-64
2021/10/05 06:00:20;;;;;;;11.40;7.87;;;12.20;99.90;;;;;;5051920;27;20672;-64
2021/10/05 06:02:46;;;;;;;13.90;8.38;;;12.20;99.90;;;;;;5052349;28;20432;-64
2021/10/05 06:05:13;;;;;;;13.10;6.97;;;12.20;99.90;;;;;;5052757;27;20177;-64
2021/10/05 06:07:39;;;;;;;11.70;8.90;;;12.20;99.90;;;;;;5052397;28;20171;-64
2021/10/05 06:10:06;;;;;;;15.13;9.23;;;12.20;99.90;;;;;;5052633;27;20446;-63
2021/10/05 06:12:38;;;;;;;14.48;9.48;;;12.20;99.90;;;;;;5052398;28;20636;-63
2021/10/05 06:15:13;;;;;;;14.75;8.07;;;12.20;99.90;;;;;;5052807;28;20643;-63
2021/10/05 06:17:41;;;;;;;13.80;8.13;;;12.30;99.90;;;;;;5051807;28;20243;-64
2021/10/05 06:20:08;;;;;;;14.13;8.65;;;12.30;99.90;;;;;;5050981;28;20770;-64
2021/10/05 06:22:35;;;;;;;14.10;9.03;;;12.30;99.90;;;;;;5052905;28;20179;-64
2021/10/05 06:25:00;;;;;;;17.33;8.70;;;12.30;99.90;;;;;;5052493;28;20405;-64
2021/10/05 06:27:26;;;;;;;14.37;9.37;;;12.40;99.90;;;;;;5052056;28;20163;-65
2021/10/05 06:29:52;;;;;;;14.10;8.10;;;12.40;99.90;;;;;;5052148;28;20231;-64
2021/10/05 06:32:17;;;;;;;8.53;7.63;;;12.40;99.90;;;;;;5050899;28;20175;-64
2021/10/05 06:34:43;;;;;;;12.10;9.23;;;12.50;99.90;;;;;;5051984;28;20580;-65
2021/10/05 06:37:09;;;;;;;14.73;8.43;;;12.50;99.90;;;;;;5052218;27;20425;-64
2021/10/05 06:39:34;;;;;;;13.90;8.90;;;12.60;99.90;;;;;;5051798;28;20214;-64
2021/10/05 06:42:00;;;;;;;16.70;7.87;;;12.60;99.90;;;;;;5052013;28;20172;-65
2021/10/05 06:44:26;;;;;;;12.70;8.20;;;12.60;99.90;;;;;;5051996;28;20221;-65
2021/10/05 06:46:52;;;;;;;11.50;7.47;;;12.70;99.90;;;;;;5051289;28;20203;-64
2021/10/05 06:49:18;;;;;;;12.17;8.30;;;12.70;99.90;;;;;;5052163;28;20195;-65
2021/10/05 06:51:43;;;;;;;13.80;8.23;;;12.80;99.90;;;;;;5051976;28;20475;-65
2021/10/05 06:54:09;;;;;;;14.07;8.70;;;12.80;99.90;;;;;;5052219;28;20175;-65
2021/10/05 06:56:35;;;;;;;11.70;7.60;;;12.90;99.90;;;;;;5051562;28;20502;-65
2021/10/05 06:59:00;;;;;;;11.20;8.53;;;12.90;99.90;;;;;;5051908;28;20247;-66
2021/10/05 07:01:26;;;;;;;17.37;9.27;;;12.90;99.90;;;;;;5050197;28;20274;-65
2021/10/05 07:03:52;;;;;;;13.10;7.57;;;12.90;99.90;;;;;;5050612;28;20172;-65
2021/10/05 07:06:18;;;;;;;14.20;10.10;;;12.90;99.90;;;;;;5052037;28;20176;-65
2021/10/05 07:08:43;;;;;;;10.50;6.33;;;13.00;99.90;;;;;;5051258;28;20211;-66
2021/10/05 07:11:09;;;;;;;11.27;7.03;;;13.10;99.90;;;;;;5051272;28;20418;-65
2021/10/05 07:13:35;;;;;;;9.40;7.63;;;13.10;99.90;;;;;;5051788;28;20163;-65
2021/10/05 07:16:00;;;;;;;14.63;6.67;;;13.20;99.90;;;;;;5051552;28;20208;-65
2021/10/05 07:18:26;;;;;;;13.40;8.10;;;13.20;99.90;;;;;;5051109;27;20263;-66
2021/10/05 07:20:52;;;;;;;11.60;6.07;;;13.30;99.90;;;;;;5051041;27;20240;-66
2021/10/05 07:23:17;;;;;;;9.57;7.43;;;13.40;99.90;;;;;;5051398;28;20435;-65
2021/10/05 07:25:43;;;;;;;10.67;7.50;;;13.40;99.90;;;;;;5051637;28;20255;-64
2021/10/05 07:28:10;;;;;;;7.20;5.17;;;13.40;99.90;;;;;;5051090;28;20187;-65
2021/10/05 07:30:36;;;;;;;12.23;6.63;;;13.40;99.90;;;;;;5051526;28;20341;-64
2021/10/05 07:33:03;;;;;;;7.70;6.80;;;13.50;99.90;;;;;;5050233;27;20896;-65
2021/10/05 07:35:29;;;;;;;9.60;7.03;;;13.60;99.90;;;;;;5051449;28;20405;-65
2021/10/05 07:37:55;;;;;;;8.57;6.80;;;13.60;99.90;;;;;;5050982;28;20427;-65
2021/10/05 07:40:22;;;;;;;7.20;5.40;;;13.70;99.90;;;;;;5051064;28;20433;-65
2021/10/05 07:42:50;;;;;;;8.10;5.53;;;13.80;99.90;;;;;;5051362;28;20420;-66
2021/10/05 07:45:16;;;;;;;7.87;5.47;;;13.90;99.90;;;;;;5051374;28;20409;-66
2021/10/05 07:47:42;;;;;;;8.10;6.13;;;14.00;99.90;;;;;;5050871;28;20410;-66
2021/10/05 07:50:08;;;;;;;9.13;6.87;;;14.10;99.90;;;;;;5050702;28;20209;-66
2021/10/05 07:52:34;;;;;;;8.97;6.83;;;14.10;99.90;;;;;;5050813;28;20196;-66
2021/10/05 07:54:59;;;;;;;8.50;5.70;;;14.10;99.90;;;;;;5050922;27;20926;-66
2021/10/05 07:57:25;;;;;;;8.10;5.80;;;14.10;99.90;;;;;;5050337;27;20183;-66
2021/10/05 07:59:52;;;;;;;8.40;5.97;;;14.10;99.90;;;;;;5050753;27;20686;-66
2021/10/05 08:02:18;;;;;;;7.50;6.10;;;14.10;99.90;;;;;;5050722;27;20173;-66
2021/10/05 08:04:44;;;;;;;16.80;9.33;;;14.20;99.90;;;;;;5051028;28;20457;-65
2021/10/05 08:07:09;;;;;;;7.47;5.57;;;14.20;99.90;;;;;;5050666;28;20173;-66
2021/10/05 08:09:35;;;;;;;5.20;4.10;;;14.30;99.90;;;;;;5050801;28;20406;-65
2021/10/05 08:12:00;;;;;;;5.87;4.03;;;14.40;99.90;;;;;;5050894;28;20184;-65
2021/10/05 08:14:26;;;;;;;6.30;5.03;;;14.40;99.90;;;;;;5050843;28;20186;-67
2021/10/05 08:16:52;;;;;;;5.40;4.30;;;14.50;99.90;;;;;;5050113;28;20306;-68
2021/10/05 08:19:18;;;;;;;6.97;5.37;;;14.50;99.90;;;;;;5050614;28;20270;-68
2021/10/05 08:21:44;;;;;;;5.30;3.60;;;14.50;99.90;;;;;;5049867;28;20204;-68
2021/10/05 08:24:10;;;;;;;4.57;3.80;;;14.50;99.90;;;;;;5050608;28;20386;-68
2021/10/05 08:26:36;;;;;;;6.90;6.00;;;14.50;99.90;;;;;;5048701;28;20549;-68
2021/10/05 08:29:02;;;;;;;3.97;3.43;;;14.50;99.90;;;;;;5049235;28;20201;-67
2021/10/05 08:31:28;;;;;;;3.60;3.30;;;14.40;99.90;;;;;;5050508;28;20180;-68
2021/10/05 08:33:54;;;;;;;5.97;3.97;;;14.50;99.90;;;;;;5050364;27;20404;-67
2021/10/05 08:36:20;;;;;;;5.53;3.73;;;14.50;99.90;;;;;;5050484;28;20177;-67
2021/10/05 08:38:46;;;;;;;4.67;4.20;;;14.40;99.90;;;;;;5049791;28;20574;-66
2021/10/05 08:41:14;;;;;;;4.80;4.30;;;14.40;99.90;;;;;;5050087;28;20845;-68
2021/10/05 08:43:42;;;;;;;5.60;4.37;;;14.50;99.90;;;;;;5049212;28;20435;-67
2021/10/05 08:46:08;;;;;;;4.80;3.77;;;14.50;99.90;;;;;;5050237;28;20383;-68
2021/10/05 08:48:36;;;;;;;4.83;4.13;;;14.60;99.90;;;;;;5049897;27;20390;-67
2021/10/05 08:51:03;;;;;;;6.23;4.77;;;14.70;99.90;;;;;;5050309;28;20412;-67
2021/10/05 08:53:31;;;;;;;4.90;4.37;;;14.80;99.90;;;;;;5050254;28;20390;-67
2021/10/05 08:55:57;;;;;;;7.03;4.40;;;14.80;99.90;;;;;;5049975;28;20427;-67
2021/10/05 08:58:23;;;;;;;5.63;3.47;;;14.90;99.90;;;;;;5049758;28;20449;-68
2021/10/05 09:00:51;;;;;;;3.87;3.50;;;15.00;99.90;;;;;;5048445;28;20487;-66
2021/10/05 09:03:27;;;;;;;4.03;3.27;;;15.00;99.90;;;;;;5048808;28;20440;-66
2021/10/05 09:05:53;;;;;;;3.70;3.07;;;15.10;99.90;;;;;;5050095;28;20383;-67
2021/10/05 09:08:24;;;;;;;4.60;3.80;;;15.20;99.90;;;;;;5049538;28;20405;-66
2021/10/05 09:11:01;;;;;;;4.27;3.87;;;15.20;99.90;;;;;;5049935;28;20880;-67
2021/10/05 09:13:34;;;;;;;4.97;4.10;;;15.20;99.90;;;;;;5050063;28;20416;-67
2021/10/05 09:16:00;;;;;;;4.90;4.00;;;15.30;99.90;;;;;;5049824;28;20441;-67
2021/10/05 09:18:26;;;;;;;3.87;3.43;;;15.40;99.90;;;;;;5049464;28;20413;-67
2021/10/05 09:20:51;;;;;;;4.20;3.40;;;15.60;99.90;;;;;;5049619;28;20786;-66
2021/10/05 09:23:18;;;;;;;3.67;3.37;;;15.60;99.90;;;;;;5050024;28;20167;-67
2021/10/05 09:25:47;;;;;;;3.80;3.07;;;15.80;99.90;;;;;;5049594;28;20511;-67
2021/10/05 09:28:18;;;;;;;4.17;3.37;;;15.80;99.90;;;;;;5049324;28;20955;-67
2021/10/05 09:30:59;;;;;;;3.23;2.93;;;15.80;99.90;;;;;;5049594;28;20470;-68
2021/10/05 09:33:25;;;;;;;4.47;3.30;;;15.80;99.90;;;;;;5051200;28;20760;-65
2021/10/05 09:35:51;;;;;;;4.03;3.70;;;15.80;99.90;;;;;;5053326;28;20375;-64
2021/10/05 09:38:20;;;;;;;4.67;4.27;;;15.80;99.90;;;;;;5052728;28;20198;-65
2021/10/05 09:40:56;;;;;;;3.70;3.40;;;15.80;99.90;;;;;;5052950;28;20825;-65
2021/10/05 09:43:23;;;;;;;10.77;5.87;;;15.80;99.90;;;;;;5053335;28;20380;-66
2021/10/05 09:45:49;;;;;;;6.50;4.77;;;15.90;99.90;;;;;;5053002;28;20388;-67
2021/10/05 09:48:15;;;;;;;3.77;3.40;;;15.90;99.90;;;;;;5052679;28;20910;-67
2021/10/05 09:50:41;;;;;;;3.77;2.93;;;15.90;99.90;;;;;;5052932;28;20439;-67
2021/10/05 09:53:12;;;;;;;3.40;3.07;;;16.00;99.90;;;;;;5053068;28;20893;-66
2021/10/05 09:55:41;;;;;;;4.03;2.63;;;16.00;99.90;;;;;;5053003;28;20432;-66
2021/10/05 09:58:09;;;;;;;2.50;1.93;;;16.20;99.90;;;;;;5052418;28;20487;-67
2021/10/05 10:00:38;;;;;;;2.60;2.40;;;16.20;99.90;;;;;;5052837;28;20449;-67
2021/10/05 10:03:06;;;;;;;1.50;1.37;;;16.20;99.90;;;;;;5051607;27;20415;-67
2021/10/05 10:05:32;;;;;;;4.30;1.70;;;16.30;99.90;;;;;;5052633;27;20388;-67
2021/10/05 10:07:58;;;;;;;1.90;1.53;;;16.40;99.90;;;;;;5052068;27;20477;-66
2021/10/05 10:10:35;;;;;;;2.53;1.67;;;16.50;99.90;;;;;;5032714;28;20414;-67
2021/10/05 10:13:07;;;;;;;1.70;1.60;;;16.70;99.90;;;;;;5031544;28;20397;-67
2021/10/05 10:15:38;;;;;;;1.03;1.03;;;16.80;99.90;;;;;;5032856;28;20378;-68
2021/10/05 10:18:13;;;;;;;1.63;1.53;;;16.90;99.90;;;;;;5035094;28;20417;-67
2021/10/05 10:20:44;;;;;;;1.43;1.33;;;16.80;99.90;;;;;;5050448;28;20550;-68
2021/10/05 10:23:22;;;;;;;1.43;1.30;;;17.00;99.90;;;;;;5049127;28;20394;-67
2021/10/05 10:26:02;;;;;;;1.97;1.53;;;17.00;99.90;;;;;;5052438;28;20396;-66
2021/10/05 10:28:40;;;;;;;2.00;1.10;;;17.10;99.90;;;;;;5052079;28;20435;-67
2021/10/05 10:31:11;;;;;;;1.20;1.10;;;17.10;99.90;;;;;;5052210;28;20418;-66
2021/10/05 10:33:49;;;;;;;1.93;1.83;;;17.30;99.90;;;;;;5052306;28;20392;-65
2021/10/05 10:36:27;;;;;;;2.33;1.80;;;17.60;99.90;;;;;;5052160;28;20491;-68
2021/10/05 10:39:07;;;;;;;1.77;1.60;;;17.90;99.90;;;;;;5050512;28;20521;-66
2021/10/05 10:41:33;;;;;;;1.83;1.30;;;18.10;99.90;;;;;;5052339;28;20785;-68
2021/10/05 10:44:03;;;;;;;1.70;1.60;;;18.20;99.90;;;;;;5052015;27;20401;-66
2021/10/05 10:46:35;;;;;;;1.70;1.60;;;18.30;99.90;;;;;;5050747;28;20390;-66
2021/10/05 10:49:04;;;;;;;1.27;1.10;;;18.30;99.90;;;;;;5052107;28;20424;-67
2021/10/05 10:51:38;;;;;;;1.30;1.20;;;18.30;99.90;;;;;;5050112;28;20425;-66
2021/10/05 10:54:12;;;;;;;1.20;1.10;;;18.30;99.90;;;;;;5050359;28;20473;-68
2021/10/05 10:56:37;;;;;;;2.00;1.40;;;18.10;99.90;;;;;;5050819;28;20404;-65
2021/10/05 10:59:05;;;;;;;1.30;1.20;;;17.90;99.90;;;;;;5051251;28;20422;-65
2021/10/05 11:01:45;;;;;;;1.30;1.30;;;17.70;99.90;;;;;;5049018;28;20264;-67
2021/10/05 11:04:14;;;;;;;1.57;1.47;;;17.60;99.90;;;;;;5049085;28;20369;-66
2021/10/05 11:06:48;;;;;;;2.67;2.20;;;17.50;99.90;;;;;;5051407;28;20388;-67
2021/10/05 11:09:14;;;;;;;1.80;1.70;;;17.40;99.90;;;;;;5051598;28;20392;-68
2021/10/05 11:11:49;;;;;;;1.30;1.20;;;17.30;99.90;;;;;;5051715;28;20814;-68
2021/10/05 11:14:28;;;;;;;1.27;1.27;;;17.30;99.90;;;;;;5051450;28;20427;-64
2021/10/05 11:17:08;;;;;;;1.60;1.50;;;17.30;99.90;;;;;;5051077;27;20423;-64
2021/10/05 11:19:37;;;;;;;1.20;1.10;;;17.40;99.90;;;;;;5051610;28;20411;-64
2021/10/05 11:22:14;;;;;;;1.57;1.47;;;17.40;99.90;;;;;;5051474;28;20405;-65
2021/10/05 11:24:41;;;;;;;1.90;1.13;;;17.50;99.90;;;;;;5051836;28;20373;-64
2021/10/05 11:27:11;;;;;;;1.27;1.20;;;17.50;99.90;;;;;;5051176;28;20380;-65
2021/10/05 11:29:37;;;;;;;1.27;1.20;;;17.50;99.90;;;;;;5051457;28;20759;-64
2021/10/05 11:32:05;;;;;;;2.07;1.97;;;17.60;99.90;;;;;;5051135;28;20530;-64
2021/10/05 11:34:34;;;;;;;0.93;0.93;;;17.60;99.90;;;;;;5051401;28;20367;-65
2021/10/05 11:37:07;;;;;;;1.27;1.17;;;17.80;99.90;;;;;;5050305;28;20410;-65
2021/10/05 11:39:35;;;;;;;1.40;1.30;;;17.80;99.90;;;;;;5051397;28;21032;-63
2021/10/05 11:42:11;;;;;;;0.90;0.90;;;17.80;99.90;;;;;;5051439;28;20383;-64
2021/10/05 11:44:45;;;;;;;2.23;1.20;;;17.80;99.90;;;;;;5050044;28;20387;-64
2021/10/05 11:47:13;;;;;;;1.07;0.90;;;17.80;99.90;;;;;;5050836;27;20749;-64
2021/10/05 11:49:41;;;;;;;0.80;0.80;;;17.80;99.90;;;;;;5051284;27;20407;-65
2021/10/05 11:52:12;;;;;;;0.77;0.77;;;18.00;99.90;;;;;;5051078;27;20449;-65
2021/10/05 11:54:38;;;;;;;2.70;1.20;;;18.20;99.90;;;;;;5051218;28;20423;-65
2021/10/05 11:57:22;;;;;;;0.73;0.73;;;18.40;99.90;;;;;;5049576;28;20383;-65
2021/10/05 11:59:48;;;;;;;0.70;0.70;;;18.50;99.90;;;;;;5050515;28;20422;-66
2021/10/05 12:02:19;;;;;;;0.97;0.80;;;18.50;99.90;;;;;;5049263;27;20435;-65
2021/10/05 12:04:50;;;;;;;0.90;0.90;;;18.40;99.90;;;;;;5049594;28;20387;-66
2021/10/05 12:07:25;;;;;;;1.70;1.37;;;18.30;99.90;;;;;;5050454;28;20733;-66
2021/10/05 12:10:01;;;;;;;0.90;0.90;;;18.20;99.90;;;;;;5050435;28;20431;-67
2021/10/05 12:12:30;;;;;;;0.70;0.70;;;18.20;99.90;;;;;;5050756;28;20924;-67
2021/10/05 12:15:03;;;;;;;0.87;0.87;;;18.10;99.90;;;;;;5050830;28;20413;-66
2021/10/05 12:17:30;;;;;;;1.00;0.90;;;18.00;99.90;;;;;;5049142;28;20499;-67
2021/10/05 12:19:59;;;;;;;1.80;1.10;;;18.00;99.90;;;;;;5050067;28;20429;-68
2021/10/05 12:22:31;;;;;;;0.87;0.60;;;17.80;99.90;;;;;;5047901;28;20442;-68
2021/10/05 12:25:02;;;;;;;1.30;1.20;;;17.70;99.90;;;;;;5049084;28;20420;-66
2021/10/05 12:27:28;;;;;;;1.10;0.97;;;17.70;99.90;;;;;;5048779;28;20379;-68
2021/10/05 12:30:07;;;;;;;6.13;1.07;;;17.70;99.90;;;;;;5049122;28;20439;-69
2021/10/05 12:32:52;;;;;;;1.10;0.67;;;17.80;99.90;;;;;;5029122;28;20173;-66
2021/10/05 12:35:22;;;;;;;0.60;0.60;;;17.90;99.90;;;;;;5029280;28;20383;-67
2021/10/05 12:38:03;;;;;;;1.10;0.67;;;18.00;99.90;;;;;;5028784;28;20760;-66
2021/10/05 12:40:47;;;;;;;1.27;1.20;;;18.10;99.90;;;;;;5030890;28;20476;-67
2021/10/05 12:43:14;;;;;;;0.60;0.60;;;18.30;99.90;;;;;;5030565;28;20804;-67
2021/10/05 12:45:49;;;;;;;0.80;0.80;;;18.40;99.90;;;;;;5039107;28;20395;-66